Time;durP1;ratioP1;P1;durP2;ratioP2;P2;SDS_P1;SDS_P2;PMS_P1;PMS_P2;Temp;Humidity;BMP_temperature;BMP_pressure;BME280_temperature;BME280_humidity;BME280_pressure;Samples;Min_cycle;Max_cycle;Signal;HPM_P1;HPM_P2
2023/08/10 00:02:26;;;;;;;3.78;2.40;;;;;;;12.62;87.71;101332.72;7399738;19;20023;-69
2023/08/10 00:04:55;;;;;;;5.25;2.42;;;;;;;12.62;87.72;101328.31;7400116;19;20011;-69
2023/08/10 00:07:23;;;;;;;5.68;2.63;;;;;;;12.62;87.47;101338.84;7397271;19;20409;-69
2023/08/10 00:09:52;;;;;;;5.43;2.63;;;;;;;12.62;87.46;101335.34;7399845;19;20010;-69
2023/08/10 00:12:23;;;;;;;2.95;2.13;;;;;;;12.62;87.23;101335.34;7397156;19;20086;-69
2023/08/10 00:14:51;;;;;;;4.03;2.10;;;;;;;12.59;87.38;101332.81;7401039;19;20019;-70
2023/08/10 00:17:20;;;;;;;3.03;2.28;;;;;;;12.58;87.30;101337.19;7399812;19;20024;-69
2023/08/10 00:19:49;;;;;;;5.45;2.35;;;;;;;12.57;87.02;101335.44;7399265;19;20010;-70
2023/08/10 00:22:18;;;;;;;4.40;2.47;;;;;;;12.59;87.03;101338.06;7399513;19;20078;-69
2023/08/10 00:24:47;;;;;;;3.50;2.28;;;;;;;12.58;87.10;101341.59;7397260;19;20014;-69
2023/08/10 00:27:15;;;;;;;6.10;2.20;;;;;;;12.58;87.11;101338.97;7397482;19;20018;-69
2023/08/10 00:29:47;;;;;;;2.75;2.35;;;;;;;12.57;87.09;101338.06;7396822;19;20368;-70
2023/08/10 00:32:15;;;;;;;4.13;2.30;;;;;;;12.57;86.96;101334.59;7396825;19;20498;-69
2023/08/10 00:34:44;;;;;;;5.05;2.75;;;;;;;12.58;87.02;101345.06;7396941;19;20018;-69
2023/08/10 00:37:13;;;;;;;5.10;2.50;;;;;;;12.59;87.15;101345.97;7398345;19;20027;-69
2023/08/10 00:39:41;;;;;;;3.35;2.10;;;;;;;12.58;87.09;101336.34;7397310;19;20066;-69
2023/08/10 00:42:10;;;;;;;3.45;2.53;;;;;;;12.58;87.08;101334.56;7396555;19;20007;-69
2023/08/10 00:44:39;;;;;;;4.40;2.03;;;;;;;12.60;86.89;101345.03;7397136;19;20081;-69
2023/08/10 00:47:10;;;;;;;2.78;2.03;;;;;;;12.60;86.96;101338.03;7396400;19;20380;-69
2023/08/10 00:49:39;;;;;;;3.63;2.58;;;;;;;12.60;86.95;101340.66;7396854;19;20074;-69
2023/08/10 00:52:07;;;;;;;4.60;2.58;;;;;;;12.60;87.08;101345.03;7395817;19;20007;-70
2023/08/10 00:54:36;;;;;;;7.38;2.72;;;;;;;12.59;87.09;101344.19;7398137;19;20078;-70
2023/08/10 00:57:06;;;;;;;3.53;2.22;;;;;;;12.59;87.15;101344.19;7397900;19;20010;-69
2023/08/10 00:59:35;;;;;;;3.72;2.25;;;;;;;12.57;86.90;101342.50;7395542;19;20018;-70
2023/08/10 01:02:04;;;;;;;5.75;3.28;;;;;;;12.54;86.88;101346.91;7395311;19;20010;-70
2023/08/10 01:04:35;;;;;;;6.07;2.20;;;;;;;12.51;87.13;101338.19;7397746;19;20021;-70
2023/08/10 01:07:10;;;;;;;2.72;2.13;;;;;;;12.42;87.10;101331.34;7395310;19;20359;-70
2023/08/10 01:09:47;;;;;;;5.10;2.40;;;;;;;12.46;87.12;101332.16;7395657;19;20022;-70
2023/08/10 01:12:54;;;;;;;3.90;2.25;;;;;;;12.43;87.00;101343.63;7396735;19;20019;-70
2023/08/10 01:15:34;;;;;;;6.13;2.50;;;;;;;12.40;86.99;101348.97;7397728;19;20007;-70
2023/08/10 01:18:08;;;;;;;5.45;2.67;;;;;;;12.36;87.13;101353.41;7395710;19;20031;-69
2023/08/10 01:20:41;;;;;;;5.28;2.13;;;;;;;12.33;87.10;101355.22;7395672;19;20032;-70
2023/08/10 01:23:15;;;;;;;4.75;2.13;;;;;;;12.28;87.31;101346.56;7396712;19;20506;-70
2023/08/10 01:25:47;;;;;;;4.80;2.58;;;;;;;12.24;87.15;101344.91;7395518;19;20027;-67
2023/08/10 01:28:17;;;;;;;3.60;2.25;;;;;;;12.22;87.42;101355.44;7396937;19;20012;-69
2023/08/10 01:30:46;;;;;;;6.07;2.20;;;;;;;12.14;87.58;101345.03;7395103;19;20010;-70
2023/08/10 01:33:14;;;;;;;5.65;2.05;;;;;;;12.12;87.69;101349.47;7395023;19;20027;-70
2023/08/10 01:35:44;;;;;;;7.47;2.90;;;;;;;12.10;87.49;101359.16;7396676;19;20023;-69
2023/08/10 01:38:13;;;;;;;6.82;2.83;;;;;;;12.06;87.81;101357.47;7396006;19;20015;-69
2023/08/10 01:40:42;;;;;;;3.72;2.75;;;;;;;11.99;87.64;101358.47;7395276;19;20494;-69
2023/08/10 01:43:13;;;;;;;5.82;3.00;;;;;;;11.97;87.78;101362.91;7394907;19;20015;-69
2023/08/10 01:45:45;;;;;;;3.88;2.95;;;;;;;11.93;87.92;101363.81;7394515;19;20010;-69
2023/08/10 01:48:20;;;;;;;3.25;2.78;;;;;;;11.89;87.74;101358.63;7396859;19;20014;-69
2023/08/10 01:50:51;;;;;;;3.85;2.63;;;;;;;11.86;87.93;101352.53;7394104;19;20022;-69
2023/08/10 01:53:24;;;;;;;4.10;2.47;;;;;;;11.83;87.92;101361.34;7394977;19;20094;-69
2023/08/10 01:55:52;;;;;;;4.18;2.42;;;;;;;11.78;87.94;101357.94;7396089;19;20371;-69
2023/08/10 01:58:23;;;;;;;5.15;2.40;;;;;;;11.76;88.04;101356.22;7394470;19;20010;-69
2023/08/10 02:00:52;;;;;;;3.97;2.47;;;;;;;11.73;87.95;101362.41;7394883;19;20018;-69
2023/08/10 02:03:21;;;;;;;10.80;3.13;;;;;;;11.69;87.98;101365.94;7394070;19;20010;-69
2023/08/10 02:05:50;;;;;;;4.70;2.90;;;;;;;11.65;88.07;101361.66;7395758;19;20086;-69
2023/08/10 02:08:18;;;;;;;4.10;2.80;;;;;;;11.58;88.02;101364.38;7394247;19;20031;-69
2023/08/10 02:10:47;;;;;;;4.90;2.90;;;;;;;11.54;88.28;101362.69;7392661;19;20083;-69
2023/08/10 02:13:15;;;;;;;5.35;2.50;;;;;;;11.49;88.41;101364.53;7393905;19;20010;-69
2023/08/10 02:15:46;;;;;;;3.85;2.70;;;;;;;11.45;88.40;101359.34;7393713;19;20376;-68
2023/08/10 02:18:15;;;;;;;5.18;3.10;;;;;;;11.40;88.41;101360.28;7394168;19;20015;-69
2023/08/10 02:20:43;;;;;;;3.75;2.55;;;;;;;11.36;88.37;101357.72;7393628;19;20018;-69
2023/08/10 02:23:12;;;;;;;7.05;2.55;;;;;;;11.35;88.58;101354.22;7393336;19;20432;-69
2023/08/10 02:25:40;;;;;;;4.82;2.75;;;;;;;11.32;88.58;101350.78;7393740;19;20010;-69
2023/08/10 02:28:09;;;;;;;3.13;2.38;;;;;;;11.29;88.73;101353.47;7393841;19;20074;-69
2023/08/10 02:30:38;;;;;;;5.95;3.03;;;;;;;11.26;88.81;101359.63;7398579;19;20029;-69
2023/08/10 02:33:09;;;;;;;3.83;2.78;;;;;;;11.22;88.87;101356.19;7400979;19;20017;-70
2023/08/10 02:35:38;;;;;;;4.07;2.90;;;;;;;11.19;89.05;101353.59;7393343;19;20478;-69
2023/08/10 02:38:06;;;;;;;8.27;2.80;;;;;;;11.16;89.17;101345.75;7394530;19;20082;-68
2023/08/10 02:40:35;;;;;;;5.47;3.15;;;;;;;11.14;89.15;101346.69;7393425;19;20018;-69
2023/08/10 02:43:04;;;;;;;4.22;2.92;;;;;;;11.12;89.27;101343.19;7394755;19;20017;-69
2023/08/10 02:45:32;;;;;;;3.55;2.83;;;;;;;11.07;89.26;101346.75;7394691;19;20015;-69
2023/08/10 02:48:01;;;;;;;6.75;2.65;;;;;;;11.07;89.29;101343.28;7392233;19;20355;-69
2023/08/10 02:50:32;;;;;;;4.65;2.40;;;;;;;11.04;89.39;101352.03;7392221;19;20027;-69
2023/08/10 02:53:00;;;;;;;5.80;3.10;;;;;;;11.01;89.43;101364.38;7394144;19;20415;-69
2023/08/10 02:55:29;;;;;;;4.50;2.65;;;;;;;10.99;89.35;101358.25;7394079;19;20006;-69
2023/08/10 02:57:57;;;;;;;5.13;3.13;;;;;;;10.95;89.57;101357.44;7394060;19;20014;-69
2023/08/10 03:00:26;;;;;;;3.72;2.83;;;;;;;10.93;89.51;101359.19;7392367;19;20090;-69
2023/08/10 03:02:54;;;;;;;4.03;2.78;;;;;;;10.90;89.65;101357.47;7394014;19;20027;-69
2023/08/10 03:05:29;;;;;;;3.88;2.50;;;;;;;10.87;89.64;101359.31;7393757;19;20015;-68
2023/08/10 03:08:01;;;;;;;5.07;2.63;;;;;;;10.84;89.67;101354.97;7394468;19;20082;-69
2023/08/10 03:10:29;;;;;;;3.50;3.00;;;;;;;10.81;89.84;101370.72;7391560;19;20430;-70
2023/08/10 03:12:58;;;;;;;8.38;3.20;;;;;;;10.79;89.84;101372.50;7392481;19;20485;-70
2023/08/10 03:15:27;;;;;;;3.58;2.67;;;;;;;10.77;89.96;101376.91;7391786;19;20078;-69
2023/08/10 03:17:55;;;;;;;7.28;3.70;;;;;;;10.76;90.11;101383.06;7391814;19;20010;-69
2023/08/10 03:20:23;;;;;;;3.28;3.00;;;;;;;10.74;90.18;101390.94;7391703;19;20082;-69
2023/08/10 03:22:52;;;;;;;4.50;3.42;;;;;;;10.73;90.36;101388.34;7401067;19;20014;-70
2023/08/10 03:25:23;;;;;;;3.65;2.80;;;;;;;10.73;90.50;101398.84;7401279;19;20462;-70
2023/08/10 03:27:52;;;;;;;5.10;3.08;;;;;;;10.73;90.67;101399.72;7398621;19;20083;-69
2023/08/10 03:30:20;;;;;;;4.95;3.05;;;;;;;10.73;90.69;101396.22;7401015;19;20414;-70
2023/08/10 03:32:49;;;;;;;4.80;3.35;;;;;;;10.73;90.79;101404.09;7401718;19;20023;-70
2023/08/10 03:35:17;;;;;;;4.63;3.63;;;;;;;10.74;90.88;101405.81;7404647;19;20055;-69
2023/08/10 03:37:46;;;;;;;7.13;4.03;;;;;;;10.73;90.95;101399.72;7401547;19;20018;-69
2023/08/10 03:40:14;;;;;;;6.93;3.45;;;;;;;10.73;91.04;101410.19;7398183;19;20411;-70
2023/08/10 03:42:45;;;;;;;3.53;3.13;;;;;;;10.73;91.09;101409.34;7398012;19;20011;-69
2023/08/10 03:45:14;;;;;;;4.65;3.92;;;;;;;10.73;91.40;101412.81;7400401;19;20090;-70
2023/08/10 03:47:42;;;;;;;5.28;2.85;;;;;;;10.74;91.17;101411.06;7400316;19;20018;-69
2023/08/10 03:50:11;;;;;;;6.50;4.10;;;;;;;10.73;91.21;101401.47;7397809;19;20028;-70
2023/08/10 03:52:40;;;;;;;5.00;3.10;;;;;;;10.72;91.34;101407.59;7398098;19;20010;-69
2023/08/10 03:55:09;;;;;;;4.68;3.38;;;;;;;10.74;91.35;101411.06;7398328;19;20039;-69
2023/08/10 03:57:39;;;;;;;4.10;3.13;;;;;;;10.73;91.28;101410.19;7397872;19;20014;-69
2023/08/10 04:00:12;;;;;;;4.30;3.42;;;;;;;10.74;91.22;101416.31;7398129;19;20521;-69
2023/08/10 04:02:41;;;;;;;6.07;3.80;;;;;;;10.73;91.34;101411.97;7397890;19;20405;-69
2023/08/10 04:05:10;;;;;;;3.65;3.35;;;;;;;10.73;91.41;101419.84;7400002;19;20364;-69
2023/08/10 04:07:40;;;;;;;5.07;3.33;;;;;;;10.74;91.47;101424.19;7397992;19;20023;-70
2023/08/10 04:10:10;;;;;;;8.35;5.05;;;;;;;10.73;91.33;101425.09;7397366;19;20063;-70
2023/08/10 04:12:40;;;;;;;5.88;3.20;;;;;;;10.74;91.22;101424.19;7397098;19;20014;-69
2023/08/10 04:15:11;;;;;;;3.97;3.03;;;;;;;10.73;91.19;101431.19;7398161;19;20035;-69
2023/08/10 04:17:40;;;;;;;4.85;3.38;;;;;;;10.72;91.07;101429.47;7398247;19;20007;-69
2023/08/10 04:20:11;;;;;;;4.28;3.40;;;;;;;10.71;91.14;101430.34;7397017;19;20019;-70
2023/08/10 04:22:39;;;;;;;5.15;3.17;;;;;;;10.71;91.06;101429.47;7399205;19;20021;-69
2023/08/10 04:25:08;;;;;;;6.63;3.10;;;;;;;10.71;90.99;101435.59;7398668;19;20002;-69
2023/08/10 04:27:37;;;;;;;5.00;3.10;;;;;;;10.72;90.98;101434.69;7397069;19;20031;-69
2023/08/10 04:30:08;;;;;;;5.93;3.85;;;;;;;10.73;90.93;101435.59;7396872;19;20018;-69
2023/08/10 04:32:39;;;;;;;4.82;2.80;;;;;;;10.75;90.83;101445.19;7397443;19;20033;-69
2023/08/10 04:35:08;;;;;;;3.90;3.10;;;;;;;10.75;90.83;101445.19;7399620;19;20074;-69
2023/08/10 04:37:37;;;;;;;4.18;2.97;;;;;;;10.76;90.83;101444.28;7395984;19;20006;-69
2023/08/10 04:40:09;;;;;;;5.88;3.17;;;;;;;10.80;90.88;101446.88;7396119;19;20044;-70
2023/08/10 04:42:38;;;;;;;4.00;3.22;;;;;;;10.80;90.78;101453.00;7398066;19;20016;-69
2023/08/10 04:45:09;;;;;;;4.07;2.90;;;;;;;10.83;90.90;101446.84;7396740;19;20013;-70
2023/08/10 04:47:40;;;;;;;5.32;3.35;;;;;;;10.80;90.74;101444.25;7396937;19;20030;-69
2023/08/10 04:50:10;;;;;;;3.42;3.05;;;;;;;10.89;90.77;101449.38;7396294;19;20041;-69
2023/08/10 04:52:39;;;;;;;7.13;3.35;;;;;;;10.93;90.71;101451.09;7395749;19;20397;-69
2023/08/10 04:55:09;;;;;;;4.63;3.20;;;;;;;10.97;90.87;101454.53;7396264;19;20017;-69
2023/08/10 04:57:37;;;;;;;5.57;3.42;;;;;;;10.97;90.86;101449.28;7395531;19;20066;-69
2023/08/10 05:00:09;;;;;;;5.00;3.38;;;;;;;11.02;90.93;101453.63;7396839;19;20084;-69
2023/08/10 05:02:41;;;;;;;4.18;2.97;;;;;;;11.07;90.89;101458.81;7398173;19;20021;-69
2023/08/10 05:05:11;;;;;;;89.07;53.00;;;;;;;11.11;90.84;101459.63;7396604;19;20029;-69
2023/08/10 05:07:40;;;;;;;7.43;5.20;;;;;;;11.14;90.92;101457.84;7395370;19;20502;-71
2023/08/10 05:10:10;;;;;;;6.53;3.97;;;;;;;11.18;91.07;101458.66;7397320;19;20037;-69
2023/08/10 05:12:52;;;;;;;7.88;4.13;;;;;;;11.23;91.08;101459.47;7396677;19;20363;-69
2023/08/10 05:15:21;;;;;;;6.22;4.25;;;;;;;11.27;90.88;101465.56;7394892;19;20530;-68
2023/08/10 05:17:52;;;;;;;7.10;5.15;;;;;;;11.30;90.81;101469.03;7396756;19;20006;-68
2023/08/10 05:20:21;;;;;;;7.43;4.90;;;;;;;11.32;91.00;101467.25;7395361;19;20010;-69
2023/08/10 05:22:49;;;;;;;5.35;3.58;;;;;;;11.36;90.93;101474.19;7397310;19;20027;-68
2023/08/10 05:25:18;;;;;;;8.73;4.10;;;;;;;11.41;90.98;101471.50;7395465;19;20018;-68
2023/08/10 05:27:46;;;;;;;6.18;5.13;;;;;;;11.47;90.89;101466.16;7397052;19;20022;-68
2023/08/10 05:30:16;;;;;;;10.43;4.65;;;;;;;11.53;90.66;101466.06;7396523;19;20010;-68
2023/08/10 05:32:45;;;;;;;4.70;4.20;;;;;;;11.60;90.67;101472.13;7395639;19;20010;-68
2023/08/10 05:35:17;;;;;;;4.25;3.28;;;;;;;11.60;90.55;101461.63;7395010;19;20015;-68
2023/08/10 05:37:46;;;;;;;5.95;3.50;;;;;;;11.74;90.43;101464.91;7394961;19;20015;-68
2023/08/10 05:40:14;;;;;;;7.03;3.60;;;;;;;11.79;90.34;101469.22;7395005;19;20429;-69
2023/08/10 05:42:44;;;;;;;5.55;3.60;;;;;;;11.79;90.18;101463.94;7394993;19;20014;-69
2023/08/10 05:45:16;;;;;;;4.65;3.70;;;;;;;11.89;90.03;101473.44;7396529;19;20119;-68
2023/08/10 05:47:46;;;;;;;6.45;3.78;;;;;;;11.90;89.89;101470.78;7395119;19;20074;-68
2023/08/10 05:50:17;;;;;;;4.00;3.58;;;;;;;12.02;90.07;101482.06;7395766;19;20014;-68
2023/08/10 05:52:46;;;;;;;4.35;3.22;;;;;;;12.08;89.85;101475.81;7394290;19;20494;-68
2023/08/10 05:55:16;;;;;;;3.90;3.15;;;;;;;12.14;89.70;101488.88;7394753;19;20018;-68
2023/08/10 05:57:44;;;;;;;7.38;4.20;;;;;;;12.20;89.44;101494.88;7394548;19;20470;-69
2023/08/10 06:00:14;;;;;;;3.88;3.17;;;;;;;12.27;89.38;101495.66;7394652;19;20483;-69
2023/08/10 06:02:45;;;;;;;13.15;7.55;;;;;;;12.33;89.32;101502.56;7393698;19;20481;-68
2023/08/10 06:05:14;;;;;;;6.63;4.15;;;;;;;12.41;89.27;101497.19;7394247;19;20017;-68
2023/08/10 06:07:47;;;;;;;5.95;3.42;;;;;;;12.53;89.13;101502.22;7396028;19;20006;-69
2023/08/10 06:10:16;;;;;;;5.13;3.80;;;;;;;12.57;88.92;101490.75;7395119;19;20014;-69
2023/08/10 06:12:44;;;;;;;7.00;2.83;;;;;;;12.70;88.70;101499.28;7395778;19;20488;-69
2023/08/10 06:15:13;;;;;;;6.57;3.05;;;;;;;12.77;88.40;101502.69;7393597;19;20014;-69
2023/08/10 06:17:41;;;;;;;4.88;2.60;;;;;;;12.84;87.95;101499.91;7395040;19;20477;-69
2023/08/10 06:20:16;;;;;;;5.05;2.45;;;;;;;12.84;87.99;101492.00;7393255;19;20020;-69
2023/08/10 06:22:47;;;;;;;4.88;3.00;;;;;;;12.95;87.59;101496.19;7394126;19;20014;-69
2023/08/10 06:25:17;;;;;;;7.70;2.95;;;;;;;12.99;87.52;101492.59;7394177;19;20014;-69
2023/08/10 06:27:47;;;;;;;7.65;2.63;;;;;;;13.06;87.50;101494.22;7395349;19;20014;-69
2023/08/10 06:30:16;;;;;;;5.45;2.47;;;;;;;13.12;87.16;101491.47;7394613;19;20022;-69
2023/08/10 06:32:45;;;;;;;4.43;2.50;;;;;;;13.19;86.63;101494.81;7395302;19;20011;-69
2023/08/10 06:35:13;;;;;;;4.97;2.30;;;;;;;13.26;86.39;101488.53;7394892;19;20006;-69
2023/08/10 06:37:42;;;;;;;3.97;2.45;;;;;;;13.33;85.90;101499.81;7396283;19;20039;-69
2023/08/10 06:40:15;;;;;;;4.70;2.30;;;;;;;13.40;85.62;101497.97;7393194;19;20021;-69
2023/08/10 06:42:44;;;;;;;6.68;2.60;;;;;;;13.47;85.33;101505.69;7395128;19;20083;-69
2023/08/10 06:45:13;;;;;;;6.85;2.25;;;;;;;13.56;84.89;101504.63;7393232;19;20512;-70
2023/08/10 06:47:43;;;;;;;5.82;2.15;;;;;;;13.64;84.15;101515.84;7392143;19;20490;-68
2023/08/10 06:50:12;;;;;;;4.75;2.30;;;;;;;13.71;83.88;101503.44;7393784;19;20015;-68
2023/08/10 06:52:41;;;;;;;8.07;2.47;;;;;;;13.81;83.24;101512.84;7391612;19;20032;-69
2023/08/10 06:55:14;;;;;;;2.72;1.67;;;;;;;13.93;82.57;101516.13;7392695;19;20018;-69
2023/08/10 06:57:44;;;;;;;5.05;1.80;;;;;;;14.06;82.09;101519.31;7399475;19;20017;-69
2023/08/10 07:00:20;;;;;;;5.72;2.13;;;;;;;14.18;81.59;101525.16;7399216;19;20066;-68
2023/08/10 07:02:50;;;;;;;7.72;1.95;;;;;;;14.30;80.88;101523.97;7398947;19;20548;-68
2023/08/10 07:05:18;;;;;;;6.45;1.88;;;;;;;14.43;80.28;101529.84;7401474;19;20021;-68
2023/08/10 07:07:47;;;;;;;6.82;1.73;;;;;;;14.56;79.81;101532.16;7401926;19;20545;-69
2023/08/10 07:10:18;;;;;;;7.95;1.88;;;;;;;14.69;78.57;101530.97;7400748;19;20015;-69
2023/08/10 07:12:47;;;;;;;7.90;1.77;;;;;;;14.79;77.86;101532.44;7398450;19;20443;-69
2023/08/10 07:15:17;;;;;;;6.07;1.95;;;;;;;14.95;77.29;101532.03;7397635;19;20031;-69
2023/08/10 07:17:46;;;;;;;6.13;1.63;;;;;;;15.08;76.63;101536.06;7398561;19;20018;-69
2023/08/10 07:20:18;;;;;;;5.35;2.47;;;;;;;15.19;76.14;101533.16;7398433;19;20027;-69
2023/08/10 07:22:47;;;;;;;5.28;1.88;;;;;;;15.27;75.36;101533.78;7400141;19;20010;-69
2023/08/10 07:25:25;;;;;;;6.38;1.38;;;;;;;15.36;73.66;101535.28;7401114;19;20010;-69
2023/08/10 07:27:54;;;;;;;9.80;1.95;;;;;;;15.45;73.51;101534.16;7398276;19;20014;-69
2023/08/10 07:30:22;;;;;;;7.90;1.65;;;;;;;15.54;72.64;101549.72;7397986;19;20077;-69
2023/08/10 07:32:51;;;;;;;6.63;1.30;;;;;;;15.61;72.41;101543.34;7398081;19;20051;-69
2023/08/10 07:35:19;;;;;;;9.55;1.65;;;;;;;15.72;71.58;101542.16;7397733;19;20481;-69
2023/08/10 07:37:49;;;;;;;8.00;1.70;;;;;;;15.79;71.58;101538.41;7400579;19;20014;-69
2023/08/10 07:40:18;;;;;;;6.22;1.65;;;;;;;15.87;71.44;101544.41;7399574;19;20082;-70
2023/08/10 07:42:49;;;;;;;4.43;1.50;;;;;;;15.93;70.77;101538.88;7397979;19;20075;-70
2023/08/10 07:45:17;;;;;;;5.47;1.63;;;;;;;15.98;69.65;101538.75;7400213;19;20014;-68
2023/08/10 07:47:46;;;;;;;2.47;1.20;;;;;;;16.00;69.23;101541.34;7400829;19;20010;-68
2023/08/10 07:50:14;;;;;;;2.83;1.30;;;;;;;16.01;69.33;101538.66;7401780;19;20010;-68
2023/08/10 07:52:43;;;;;;;8.10;1.83;;;;;;;16.03;69.56;101538.59;7407107;19;20493;-69
2023/08/10 07:55:13;;;;;;;7.43;1.75;;;;;;;16.08;69.24;101544.63;7410354;19;20011;-68
2023/08/10 07:57:41;;;;;;;8.63;1.80;;;;;;;16.11;69.38;101544.50;7402880;19;20014;-68
2023/08/10 08:00:13;;;;;;;5.90;2.63;;;;;;;16.14;69.21;101547.06;7398372;19;20010;-68
2023/08/10 08:02:43;;;;;;;20.85;6.35;;;;;;;16.17;68.92;101546.97;7397610;19;20031;-69
2023/08/10 08:05:12;;;;;;;5.00;1.80;;;;;;;16.18;68.26;101539.91;7399325;19;20011;-68
2023/08/10 08:07:40;;;;;;;5.68;1.50;;;;;;;16.24;67.87;101545.00;7394420;19;20014;-68
2023/08/10 08:10:10;;;;;;;6.78;2.03;;;;;;;16.28;67.38;101550.13;7396730;19;20070;-69
2023/08/10 08:12:38;;;;;;;8.38;2.25;;;;;;;16.37;67.23;101550.75;7399091;19;20046;-69
2023/08/10 08:15:08;;;;;;;4.38;1.80;;;;;;;16.47;66.70;101549.50;7397432;19;20019;-69
2023/08/10 08:18:06;;;;;;;5.47;1.70;;;;;;;16.59;66.19;101553.53;7399372;19;20027;-68
2023/08/10 08:20:38;;;;;;;5.38;1.85;;;;;;;16.70;66.06;101548.72;7397514;19;20015;-69
2023/08/10 08:23:06;;;;;;;3.75;1.27;;;;;;;16.83;65.50;101543.00;7399197;19;20078;-68
2023/08/10 08:25:35;;;;;;;7.03;2.17;;;;;;;16.94;65.10;101547.03;7396207;19;20011;-68
2023/08/10 08:28:03;;;;;;;6.70;1.25;;;;;;;17.01;64.21;101545.03;7396005;19;20070;-68
2023/08/10 08:30:32;;;;;;;7.50;1.48;;;;;;;17.05;62.99;101544.00;7397176;19;20073;-68
2023/08/10 08:33:00;;;;;;;3.03;1.50;;;;;;;17.07;62.03;101552.78;7398247;19;20006;-68
2023/08/10 08:35:29;;;;;;;6.40;1.15;;;;;;;17.07;61.20;101544.81;7398453;19;20074;-68
2023/08/10 08:38:00;;;;;;;4.03;1.23;;;;;;;17.09;61.05;101548.25;7396381;19;20046;-68
2023/08/10 08:40:31;;;;;;;7.93;1.10;;;;;;;17.10;61.03;101544.69;7396990;19;20034;-69
2023/08/10 08:43:02;;;;;;;2.85;1.00;;;;;;;17.12;60.74;101543.78;7401274;19;20023;-69
2023/08/10 08:45:31;;;;;;;4.75;1.08;;;;;;;17.13;60.51;101545.50;7399977;19;20018;-68
2023/08/10 08:48:02;;;;;;;4.25;1.30;;;;;;;17.15;60.64;101543.66;7399157;19;20018;-70
2023/08/10 08:50:31;;;;;;;4.45;1.42;;;;;;;17.18;60.45;101539.09;7396845;19;20014;-68
2023/08/10 08:53:04;;;;;;;4.72;1.83;;;;;;;17.22;60.35;101538.06;7395369;19;20014;-68
2023/08/10 08:55:33;;;;;;;4.47;1.05;;;;;;;17.28;60.18;101533.47;7397517;19;20019;-68
2023/08/10 08:58:01;;;;;;;3.63;1.10;;;;;;;17.33;60.08;101542.97;7397476;19;20087;-69
2023/08/10 09:00:33;;;;;;;5.40;1.25;;;;;;;17.37;60.06;101546.38;7396524;19;20033;-67
2023/08/10 09:03:02;;;;;;;7.50;1.33;;;;;;;17.34;60.12;101533.22;7397912;19;20025;-67
2023/08/10 09:05:32;;;;;;;3.28;1.02;;;;;;;17.44;60.02;101542.59;7395333;19;20041;-67
2023/08/10 09:08:03;;;;;;;10.02;1.65;;;;;;;17.48;59.64;101541.53;7398179;19;20021;-68
2023/08/10 09:10:32;;;;;;;7.47;2.05;;;;;;;17.55;60.13;101548.34;7395970;19;20082;-68
2023/08/10 09:13:12;;;;;;;6.35;1.48;;;;;;;17.61;58.36;101549.03;7396877;19;20081;-68
2023/08/10 09:15:41;;;;;;;4.28;1.00;;;;;;;17.61;59.50;101549.03;7394560;19;20006;-67
2023/08/10 09:18:09;;;;;;;3.83;1.30;;;;;;;17.59;60.05;101543.75;7394867;19;20015;-68
2023/08/10 09:20:38;;;;;;;3.63;1.20;;;;;;;17.62;59.94;101540.16;7394113;19;20015;-68
2023/08/10 09:23:10;;;;;;;4.25;1.33;;;;;;;17.66;60.07;101534.66;7395241;19;20010;-69
2023/08/10 09:25:40;;;;;;;3.50;1.10;;;;;;;17.72;59.81;101534.41;7396579;19;20090;-68
2023/08/10 09:28:11;;;;;;;2.80;1.05;;;;;;;17.83;59.16;101525.16;7396568;19;20011;-68
2023/08/10 09:30:41;;;;;;;2.92;1.63;;;;;;;17.91;59.00;101534.53;7395271;19;20038;-69
2023/08/10 09:33:09;;;;;;;3.20;1.27;;;;;;;18.00;59.02;101533.34;7394834;19;20383;-70
2023/08/10 09:35:38;;;;;;;6.32;1.40;;;;;;;18.12;58.22;101534.66;7396041;19;20014;-69
2023/08/10 09:38:09;;;;;;;6.82;1.30;;;;;;;18.23;58.16;101529.75;7395912;19;20024;-68
2023/08/10 09:40:38;;;;;;;5.95;2.53;;;;;;;18.36;57.63;101527.47;7394993;19;20018;-68
2023/08/10 09:43:11;;;;;;;6.25;1.75;;;;;;;18.49;57.30;101530.47;7395894;19;20035;-69
2023/08/10 09:45:39;;;;;;;8.98;1.50;;;;;;;18.60;57.09;101532.63;7395423;19;20006;-68
2023/08/10 09:48:13;;;;;;;4.07;1.20;;;;;;;18.66;56.95;101532.38;7396201;19;20018;-69
2023/08/10 09:50:42;;;;;;;3.67;1.27;;;;;;;18.72;57.07;101539.25;7395374;19;20021;-69
2023/08/10 09:53:13;;;;;;;5.38;1.30;;;;;;;18.77;56.99;101541.69;7393727;19;20006;-69
2023/08/10 09:55:42;;;;;;;3.42;1.50;;;;;;;18.83;56.38;101538.75;7393502;19;20454;-69
2023/08/10 09:58:10;;;;;;;5.22;1.25;;;;;;;18.91;56.20;101551.75;7393895;19;20027;-70
2023/08/10 10:00:43;;;;;;;3.83;1.27;;;;;;;18.99;55.52;101550.50;7394159;19;20077;-69
2023/08/10 10:03:11;;;;;;;4.47;1.27;;;;;;;19.08;55.99;101545.69;7394134;19;20042;-69
2023/08/10 10:05:40;;;;;;;5.82;1.45;;;;;;;19.18;55.18;101547.00;7395303;19;20078;-70
2023/08/10 10:08:11;;;;;;;6.50;1.65;;;;;;;19.21;54.93;101536.22;7395397;19;20502;-71
2023/08/10 10:10:45;;;;;;;7.13;1.48;;;;;;;19.32;55.21;101543.69;7393150;19;20014;-70
2023/08/10 10:13:14;;;;;;;;;;;;;;;19.38;54.10;101540.75;7393689;19;20015;-69
2023/08/10 10:15:44;;;;;;;6.00;1.30;;;;;;;19.41;54.70;101545.97;7393470;19;20295;-69
2023/08/10 10:18:14;;;;;;;6.57;1.15;;;;;;;19.44;54.80;101544.94;7393323;19;20031;-69
2023/08/10 10:20:45;;;;;;;6.30;1.23;;;;;;;19.45;53.90;101544.00;7392700;19;20074;-69
2023/08/10 10:23:18;;;;;;;4.43;1.50;;;;;;;19.47;53.48;101547.47;7395247;19;20027;-69
2023/08/10 10:26:00;;;;;;;5.15;1.30;;;;;;;19.45;53.20;101541.34;7393469;19;20071;-70
2023/08/10 10:28:30;;;;;;;5.53;1.30;;;;;;;19.42;53.41;101541.50;7392633;19;20019;-69
2023/08/10 10:31:08;;;;;;;3.60;1.00;;;;;;;19.38;52.35;101535.44;7394977;19;20015;-70
2023/08/10 10:33:38;;;;;;;4.78;1.40;;;;;;;19.36;53.32;101545.28;7402232;19;20070;-69
2023/08/10 10:36:08;;;;;;;5.07;1.20;;;;;;;19.33;53.06;101530.31;7402126;19;20014;-69
2023/08/10 10:38:37;;;;;;;3.80;1.08;;;;;;;19.31;52.60;101529.56;7401903;19;20070;-68
2023/08/10 10:41:16;;;;;;;2.55;0.90;;;;;;;19.24;49.89;101528.09;7400378;19;20122;-70
2023/08/10 10:43:46;;;;;;;3.70;1.42;;;;;;;19.24;51.98;101522.78;7401636;19;20418;-69
2023/08/10 10:46:40;;;;;;;5.68;1.10;;;;;;;19.27;51.51;101517.34;7399367;19;20014;-69
2023/08/10 10:49:10;;;;;;;6.82;1.35;;;;;;;19.36;52.52;101522.22;7401841;19;20027;-70
2023/08/10 10:51:58;;;;;;;4.30;1.20;;;;;;;19.45;50.51;101515.59;7398797;19;20484;-71
2023/08/10 10:54:28;;;;;;;5.68;1.60;;;;;;;19.51;51.32;101510.00;7398819;19;20002;-70
2023/08/10 10:56:59;;;;;;;4.28;1.05;;;;;;;19.55;50.28;101516.03;7399949;19;20014;-70
2023/08/10 10:59:28;;;;;;;2.35;1.30;;;;;;;19.59;51.29;101511.41;7399398;19;20041;-69
2023/08/10 11:01:56;;;;;;;3.75;1.13;;;;;;;19.61;51.11;101514.88;7398976;19;20015;-70
2023/08/10 11:04:25;;;;;;;2.60;1.15;;;;;;;19.58;50.93;101515.88;7399026;19;20019;-70
2023/08/10 11:06:53;;;;;;;4.18;1.10;;;;;;;19.56;51.35;101507.09;7398871;19;20481;-69
2023/08/10 11:09:23;;;;;;;5.05;1.55;;;;;;;19.53;51.27;101505.44;7400522;19;20014;-71
2023/08/10 11:11:52;;;;;;;6.60;1.88;;;;;;;19.53;51.68;101507.25;7399173;19;20025;-70
2023/08/10 11:14:30;;;;;;;4.22;1.10;;;;;;;19.55;51.35;101505.41;7398140;19;20015;-70
2023/08/10 11:17:00;;;;;;;4.28;1.23;;;;;;;19.57;50.73;101492.84;7401188;19;20330;-68
2023/08/10 11:19:33;;;;;;;3.17;1.10;;;;;;;19.61;48.58;101513.06;7400352;19;20023;-68
2023/08/10 11:22:02;;;;;;;8.02;1.27;;;;;;;19.67;49.64;101503.94;7397565;19;20018;-69
2023/08/10 11:24:32;;;;;;;4.97;1.00;;;;;;;19.73;48.96;101492.13;7399588;19;20017;-70
2023/08/10 11:27:00;;;;;;;2.85;1.20;;;;;;;19.78;49.11;101490.13;7400854;19;20038;-69
2023/08/10 11:29:32;;;;;;;5.07;1.38;;;;;;;19.85;49.14;101483.56;7400902;19;20017;-69
2023/08/10 11:32:01;;;;;;;2.63;1.30;;;;;;;19.95;48.83;101481.31;7397886;19;20011;-69
2023/08/10 11:34:30;;;;;;;2.20;1.25;;;;;;;20.07;49.18;101482.50;7397858;19;20074;-71
2023/08/10 11:36:58;;;;;;;3.95;1.00;;;;;;;20.20;48.51;101469.44;7400403;19;20021;-69
2023/08/10 11:39:27;;;;;;;3.38;1.52;;;;;;;20.31;48.23;101477.75;7397525;19;20039;-69